Hanalei, HI (96714)

2:59 PM HST on February 27, 2015 (GMT -1000)
North Shore of Kauai | Change Station
CLOSE
Current Station
Personal Weather Station
Location: Princeville, HI
Elevation: 200 ft
Nearby Weather Stations

Elev 200 ft 22.23 °N, 159.48 °W | Updated 1 second ago

Scattered Clouds
Scattered Clouds
74.6 °F
Feels Like 75 °F
N
7.2
Wind Variable Wind from North
Gusts 7.2 mph

Today
High -- | Low -- °F
--% Chance of Precip.
Yesterday
High -- | Low -- °F
Precip. -- in
7:00 AM 6:40 PM
Waxing Gibbous, 73% visible
Pressure 29.93 in
Visibility 10.0 miles
Clouds Scattered Clouds 4100 ft
Heat Index 75 °F
Dew Point 68 °F
Humidity 80%
Rainfall 0.00 in
Snow Depth Not available.
UV 5 out of 12
Pollen Not available.
Air Quality Not available.
Flu Activity Not available.
METAR PHLI 280053Z 36013KT 10SM SCT041 27/17 A2993 RMK AO2 SLP133 T02670167

More Conditions Fewer Conditions

Pressure 29.93 in
Visibility 10.0 miles
Clouds Scattered Clouds 4100 ft
Heat Index 75 °F
Dew Point 68 °F
Humidity 80%
Rainfall 0.00 in
Snow Depth Not available.
UV 5 out of 12
Pollen Not available.
Air Quality Not available.
Flu Activity Not available.
METAR PHLI 280053Z 36013KT 10SM SCT041 27/17 A2993 RMK AO2 SLP133 T02670167

More Conditions Fewer Conditions

10-Day Weather Forecast

Almanac

Astronomy

Feb. 27, 2015 Rise Set
Actual Time
Civil Twilight
Nautical Twilight
Astronomical Twilight
Moon
Length of Visible Light
Length of Day
Tomorrow will be .
, % of the Moon is Illuminated

Today's Extremes

State Highs State Lows

Community

WunderPhotos

Upload Photos

1,800,910 photos uploaded!

WunderBlogs® & News

Nearby

Air Quality

  Air Quality AQ Index Pollutant
Not available.

Snow Depth

Station Depth Elevation

Earthquake Activity

City Distance Mag. Time & Date
Minimum magnitude displayed is 2.5.

Coastal Water Temperatures

Place Temperature

Nearby Weather Stations